createdAt,value
2023-05-15T00:01:37.462Z,11.17
2023-05-15T00:04:06.691Z,11.18
2023-05-15T00:06:34.430Z,11.23
2023-05-15T00:09:02.749Z,11.22
2023-05-15T00:11:30.648Z,11.22
2023-05-15T00:13:58.459Z,11.22
2023-05-15T00:16:26.246Z,11.22
2023-05-15T00:18:54.140Z,11.14
2023-05-15T00:21:23.304Z,11.15
2023-05-15T00:23:54.005Z,11.05
2023-05-15T00:26:24.416Z,11.05
2023-05-15T00:28:53.210Z,11.11
2023-05-15T00:31:22.097Z,11.17
2023-05-15T00:33:49.896Z,11.16
2023-05-15T00:36:17.750Z,11.22
2023-05-15T00:38:47.007Z,11.22
2023-05-15T00:41:16.794Z,11.21
2023-05-15T00:43:44.942Z,11.25
2023-05-15T00:46:14.120Z,11.24
2023-05-15T00:48:44.646Z,11.23
2023-05-15T00:51:13.295Z,11.21
2023-05-15T00:53:41.700Z,10.93
2023-05-15T00:56:13.127Z,11.20
2023-05-15T00:58:41.094Z,11.19
2023-05-15T01:01:08.955Z,11.18
2023-05-15T01:03:37.740Z,11.21
2023-05-15T01:06:06.178Z,11.17
2023-05-15T01:08:40.771Z,11.08
2023-05-15T01:11:12.798Z,10.99
2023-05-15T01:13:40.890Z,10.92
2023-05-15T01:16:09.951Z,10.72
2023-05-15T01:18:38.578Z,10.80
2023-05-15T01:22:01.129Z,10.74
2023-05-15T01:24:52.119Z,10.54
2023-05-15T01:27:30.522Z,10.59
2023-05-15T01:30:06.507Z,10.58
2023-05-15T01:33:01.229Z,10.51
2023-05-15T01:35:33.493Z,10.51
2023-05-15T01:38:14.068Z,10.44
2023-05-15T01:40:42.812Z,10.46
2023-05-15T01:43:16.779Z,10.40
2023-05-15T01:45:46.027Z,10.32
2023-05-15T01:48:16.448Z,10.29
2023-05-15T01:50:46.695Z,10.33
2023-05-15T01:53:16.282Z,10.36
2023-05-15T01:55:44.720Z,10.31
2023-05-15T01:58:13.329Z,10.30
2023-05-15T02:00:42.862Z,10.31
2023-05-15T02:03:11.300Z,10.35
2023-05-15T02:05:40.819Z,10.35
2023-05-15T02:08:09.954Z,10.33
2023-05-15T02:10:38.241Z,10.35
2023-05-15T02:13:07.353Z,10.35
2023-05-15T02:15:36.763Z,10.32
2023-05-15T02:18:04.981Z,10.33
2023-05-15T02:20:32.800Z,10.19
2023-05-15T02:23:01.973Z,10.28
2023-05-15T02:25:38.606Z,10.21
2023-05-15T02:28:16.713Z,10.22
2023-05-15T02:30:50.794Z,10.18
2023-05-15T02:33:27.012Z,10.14
2023-05-15T02:35:59.886Z,10.18
2023-05-15T02:38:32.092Z,10.17
2023-05-15T02:41:01.742Z,10.19
2023-05-15T02:43:30.980Z,10.21
2023-05-15T02:46:00.840Z,10.18
2023-05-15T02:48:28.902Z,10.06
2023-05-15T02:50:56.793Z,10.11
2023-05-15T02:53:24.602Z,10.10
2023-05-15T02:55:53.687Z,10.08
2023-05-15T02:58:21.543Z,10.07
2023-05-15T03:00:49.596Z,10.06
2023-05-15T03:03:17.636Z,9.89
2023-05-15T03:05:45.449Z,10.05
2023-05-15T03:08:13.304Z,10.07
2023-05-15T03:10:41.022Z,10.09
2023-05-15T03:13:10.208Z,10.02
2023-05-15T03:15:38.630Z,10.09
2023-05-15T03:18:06.611Z,9.90
2023-05-15T03:20:34.644Z,10.07
2023-05-15T03:23:02.508Z,10.17
2023-05-15T03:25:30.328Z,10.16
2023-05-15T03:27:58.203Z,10.14
2023-05-15T03:30:27.342Z,10.05
2023-05-15T03:32:57.342Z,10.01
2023-05-15T03:35:26.312Z,10.00
2023-05-15T03:37:54.291Z,9.96
2023-05-15T03:40:22.134Z,9.98
2023-05-15T03:42:53.522Z,9.86
2023-05-15T03:45:21.623Z,9.86
2023-05-15T03:47:50.905Z,9.78
2023-05-15T03:50:18.973Z,9.70
2023-05-15T03:52:46.823Z,9.62
2023-05-15T03:55:14.692Z,9.60
2023-05-15T03:57:42.660Z,9.60
2023-05-15T04:00:12.113Z,9.52
2023-05-15T04:02:40.618Z,9.51
2023-05-15T04:05:10.455Z,9.46
2023-05-15T04:07:38.488Z,9.29
2023-05-15T04:10:07.220Z,9.45
2023-05-15T04:12:36.554Z,9.46
2023-05-15T04:15:18.643Z,9.48
2023-05-15T04:17:47.734Z,9.50
2023-05-15T04:20:18.309Z,9.47
2023-05-15T04:22:46.988Z,9.51
2023-05-15T04:25:16.260Z,9.59
2023-05-15T04:27:44.684Z,9.60
2023-05-15T04:30:13.830Z,9.67
2023-05-15T04:32:42.375Z,9.71
2023-05-15T04:35:13.394Z,9.70
2023-05-15T04:37:45.364Z,9.81
2023-05-15T04:40:15.010Z,9.83
2023-05-15T04:42:43.296Z,9.87
2023-05-15T04:45:11.447Z,9.91
2023-05-15T04:47:39.419Z,9.94
2023-05-15T04:50:09.137Z,10.01
2023-05-15T04:52:37.327Z,9.97
2023-05-15T04:55:08.202Z,9.97
2023-05-15T04:57:36.102Z,10.03
2023-05-15T05:00:05.755Z,10.10
2023-05-15T05:02:34.165Z,10.15
2023-05-15T05:05:02.079Z,10.19
2023-05-15T05:07:30.163Z,10.32
2023-05-15T05:09:58.080Z,10.27
2023-05-15T05:12:28.050Z,10.43
2023-05-15T05:14:56.817Z,10.52
2023-05-15T05:17:24.801Z,10.54
2023-05-15T05:19:52.663Z,10.58
2023-05-15T05:22:20.609Z,10.60
2023-05-15T05:24:48.511Z,10.35
2023-05-15T05:27:16.471Z,10.57
2023-05-15T05:29:46.278Z,10.51
2023-05-15T05:32:14.167Z,10.46
2023-05-15T05:34:42.229Z,10.57
2023-05-15T05:37:10.285Z,10.60
2023-05-15T05:39:38.090Z,10.55
2023-05-15T05:42:06.696Z,10.62
2023-05-15T05:44:37.727Z,10.60
2023-05-15T05:47:07.378Z,10.59
2023-05-15T05:49:35.192Z,10.69
2023-05-15T05:52:11.858Z,10.73
2023-05-15T05:54:39.618Z,10.78
2023-05-15T05:57:07.756Z,10.80
2023-05-15T05:59:37.451Z,10.83
2023-05-15T06:02:06.928Z,10.88
2023-05-15T06:04:34.926Z,10.99
2023-05-15T06:07:04.698Z,11.05
2023-05-15T06:09:32.924Z,11.03
2023-05-15T06:12:04.740Z,11.11
2023-05-15T06:14:32.711Z,11.21
2023-05-15T06:17:01.454Z,11.18
2023-05-15T06:19:30.837Z,11.30
2023-05-15T06:21:58.727Z,11.31
2023-05-15T06:24:26.906Z,11.44
2023-05-15T06:26:54.850Z,11.53
2023-05-15T06:29:22.694Z,11.61
2023-05-15T06:31:50.495Z,11.67
2023-05-15T06:34:18.377Z,11.79
2023-05-15T06:36:47.869Z,11.83
2023-05-15T06:39:15.770Z,11.91
2023-05-15T06:41:43.562Z,11.96
2023-05-15T06:44:11.249Z,12.09
2023-05-15T06:46:39.068Z,12.14
2023-05-15T06:49:06.951Z,12.10
2023-05-15T06:51:34.869Z,12.19
2023-05-15T06:54:04.829Z,12.19
2023-05-15T06:56:32.722Z,12.29
2023-05-15T06:59:00.514Z,12.35
2023-05-15T07:01:28.320Z,12.39
2023-05-15T07:03:56.256Z,12.42
2023-05-15T07:06:24.114Z,12.36
2023-05-15T07:08:51.891Z,12.51
2023-05-15T07:11:21.156Z,12.57
2023-05-15T07:13:50.194Z,12.70
2023-05-15T07:16:18.574Z,12.60
2023-05-15T07:18:46.589Z,12.50
2023-05-15T07:21:14.558Z,12.61
2023-05-15T07:23:42.410Z,12.79
2023-05-15T07:26:14.113Z,12.84
2023-05-15T07:28:46.202Z,13.02
2023-05-15T07:31:14.157Z,13.10
2023-05-15T07:33:42.235Z,13.22
2023-05-15T07:36:10.300Z,13.18
2023-05-15T07:38:38.095Z,13.23
2023-05-15T07:41:06.038Z,13.18
2023-05-15T07:43:33.766Z,13.28
2023-05-15T07:46:03.035Z,13.35
2023-05-15T07:48:30.932Z,13.43
2023-05-15T07:50:58.702Z,13.42
2023-05-15T07:53:26.551Z,13.18
2023-05-15T07:55:54.553Z,13.12
2023-05-15T07:58:23.251Z,13.29
2023-05-15T08:00:51.151Z,13.28
2023-05-15T08:03:23.528Z,13.14
2023-05-15T08:05:52.052Z,13.27
2023-05-15T08:08:20.185Z,13.22
2023-05-15T08:10:47.969Z,13.27
2023-05-15T08:13:15.827Z,13.30
2023-05-15T08:15:44.388Z,13.31
2023-05-15T08:18:12.568Z,13.28
2023-05-15T08:20:41.777Z,13.43
2023-05-15T08:23:09.607Z,13.44
2023-05-15T08:25:37.405Z,13.36
2023-05-15T08:28:05.947Z,13.49
2023-05-15T08:30:33.796Z,13.52
2023-05-15T08:33:01.702Z,13.50
2023-05-15T08:35:29.563Z,13.42
2023-05-15T08:37:58.993Z,13.43
2023-05-15T08:40:38.150Z,13.44
2023-05-15T08:43:15.045Z,13.43
2023-05-15T08:45:44.098Z,13.40
2023-05-15T08:48:17.303Z,13.29
2023-05-15T08:50:45.951Z,13.39
2023-05-15T08:53:16.214Z,13.28
2023-05-15T08:55:44.244Z,13.37
2023-05-15T08:58:12.144Z,13.43
2023-05-15T09:00:40.041Z,13.45
2023-05-15T09:03:08.067Z,13.54
2023-05-15T09:05:37.386Z,13.49
2023-05-15T09:08:09.336Z,13.50
2023-05-15T09:10:38.544Z,13.55
2023-05-15T09:13:08.234Z,13.57
2023-05-15T09:15:37.297Z,13.51
2023-05-15T09:18:07.864Z,13.50
2023-05-15T09:20:37.567Z,13.47
2023-05-15T09:23:06.615Z,13.37
2023-05-15T09:25:37.727Z,13.41
2023-05-15T09:28:07.452Z,13.44
2023-05-15T09:30:35.586Z,13.51
2023-05-15T09:33:04.981Z,13.57
2023-05-15T09:35:34.004Z,13.58
2023-05-15T09:38:02.927Z,13.52
2023-05-15T09:40:31.760Z,13.60
2023-05-15T09:42:59.740Z,13.52
2023-05-15T09:45:30.367Z,13.50
2023-05-15T09:48:02.537Z,13.56
2023-05-15T09:50:34.807Z,13.51
2023-05-15T09:53:03.226Z,13.57
2023-05-15T09:55:32.852Z,13.52
2023-05-15T09:58:08.815Z,13.51
2023-05-15T10:00:47.980Z,13.57
2023-05-15T10:03:19.968Z,13.66
2023-05-15T10:05:48.075Z,13.64
2023-05-15T10:08:16.214Z,13.67
2023-05-15T10:10:44.520Z,13.63
2023-05-15T10:13:12.787Z,13.66
2023-05-15T10:15:42.721Z,13.55
2023-05-15T10:18:10.624Z,13.75
2023-05-15T10:20:39.730Z,13.81
2023-05-15T10:23:11.726Z,13.85
2023-05-15T10:25:44.279Z,13.98
2023-05-15T10:28:13.251Z,14.03
2023-05-15T10:30:44.204Z,14.08
2023-05-15T10:33:14.418Z,14.16
2023-05-15T10:35:43.700Z,14.24
2023-05-15T10:38:12.742Z,14.34
2023-05-15T10:40:42.903Z,14.36
2023-05-15T10:43:12.534Z,14.45
2023-05-15T10:45:44.518Z,14.48
2023-05-15T10:48:13.615Z,14.37
2023-05-15T10:50:41.674Z,14.37
2023-05-15T10:53:11.096Z,14.12
2023-05-15T10:55:38.957Z,14.12
2023-05-15T10:58:10.137Z,14.11
2023-05-15T11:00:44.868Z,14.35
2023-05-15T11:03:15.200Z,14.47
2023-05-15T11:06:08.609Z,14.53
2023-05-15T11:08:36.883Z,14.53
2023-05-15T11:11:04.707Z,14.54
2023-05-15T11:14:12.253Z,14.48
2023-05-15T11:17:01.256Z,14.62
2023-05-15T11:19:58.786Z,14.78
2023-05-15T11:22:31.888Z,14.83
2023-05-15T11:25:01.626Z,14.86
2023-05-15T11:27:31.975Z,14.86
2023-05-15T11:30:14.832Z,14.81
2023-05-15T11:32:46.670Z,14.83
2023-05-15T11:35:19.110Z,15.02
2023-05-15T11:37:49.494Z,15.07
2023-05-15T11:40:22.414Z,15.09
2023-05-15T11:43:20.416Z,15.11
2023-05-15T11:45:49.980Z,15.06
2023-05-15T11:48:20.724Z,15.05
2023-05-15T11:50:48.634Z,15.05
2023-05-15T11:53:16.630Z,14.94
2023-05-15T11:55:45.955Z,14.84
2023-05-15T11:58:15.474Z,14.84
2023-05-15T12:00:43.730Z,14.71
2023-05-15T12:03:25.636Z,14.70
2023-05-15T12:05:59.392Z,14.86
2023-05-15T12:08:32.564Z,15.03
2023-05-15T12:11:01.112Z,14.82
2023-05-15T12:13:29.283Z,14.77
2023-05-15T12:15:57.962Z,14.68
2023-05-15T12:18:27.268Z,14.63
2023-05-15T12:20:56.019Z,14.47
2023-05-15T12:23:25.140Z,14.44
2023-05-15T12:25:58.377Z,14.35
2023-05-15T12:28:27.266Z,14.11
2023-05-15T12:30:55.912Z,14.19
2023-05-15T12:33:24.495Z,14.01
2023-05-15T12:35:58.918Z,13.96
2023-05-15T12:38:28.898Z,14.11
2023-05-15T12:40:57.211Z,14.19
2023-05-15T12:43:26.217Z,14.11
2023-05-15T12:45:54.908Z,14.12
2023-05-15T12:48:23.440Z,13.93
2023-05-15T12:50:51.631Z,13.87
2023-05-15T12:53:23.022Z,13.86
2023-05-15T12:55:52.265Z,13.84
2023-05-15T12:58:21.040Z,13.76
2023-05-15T13:00:50.247Z,13.51
2023-05-15T13:03:21.501Z,13.61
2023-05-15T13:05:49.403Z,13.75
2023-05-15T13:08:18.789Z,13.82
2023-05-15T13:10:48.733Z,13.96
2023-05-15T13:13:17.724Z,14.00
2023-05-15T13:15:46.606Z,14.11
2023-05-15T13:18:16.118Z,14.20
2023-05-15T13:20:45.408Z,14.15
2023-05-15T13:23:16.092Z,14.26
2023-05-15T13:25:46.360Z,14.24
2023-05-15T13:28:15.889Z,14.17
2023-05-15T13:30:44.362Z,13.95
2023-05-15T13:33:13.628Z,13.92
2023-05-15T13:35:44.086Z,14.02
2023-05-15T13:38:12.694Z,13.96
2023-05-15T13:40:45.490Z,13.84
2023-05-15T13:43:13.273Z,13.73
2023-05-15T13:45:42.657Z,13.65
2023-05-15T13:48:10.565Z,13.60
2023-05-15T13:50:38.511Z,13.55
2023-05-15T13:53:06.296Z,13.46
2023-05-15T13:55:34.254Z,13.47
2023-05-15T13:58:02.381Z,13.42
2023-05-15T14:00:30.405Z,13.41
2023-05-15T14:02:59.753Z,13.38
2023-05-15T14:05:27.595Z,13.25
2023-05-15T14:07:57.095Z,13.09
2023-05-15T14:10:25.286Z,13.04
2023-05-15T14:12:53.581Z,13.00
2023-05-15T14:15:21.397Z,13.13
2023-05-15T14:17:50.680Z,13.11
2023-05-15T14:20:20.048Z,13.19
2023-05-15T14:22:47.892Z,13.20
2023-05-15T14:25:15.690Z,13.23
2023-05-15T14:27:43.682Z,13.32
2023-05-15T14:30:12.264Z,13.37
2023-05-15T14:32:40.129Z,13.26
2023-05-15T14:35:08.602Z,13.29
2023-05-15T14:37:38.376Z,13.23
2023-05-15T14:40:08.107Z,13.26
2023-05-15T14:42:35.887Z,13.21
2023-05-15T14:45:05.264Z,13.15
2023-05-15T14:47:33.818Z,13.21
2023-05-15T14:50:01.680Z,13.16
2023-05-15T14:52:29.749Z,13.15
2023-05-15T14:55:08.576Z,13.10
2023-05-15T14:57:37.417Z,13.19
2023-05-15T15:00:06.729Z,13.09
2023-05-15T15:02:34.878Z,12.97
2023-05-15T15:05:03.062Z,13.04
2023-05-15T15:07:31.408Z,12.95
2023-05-15T15:10:00.769Z,12.85
2023-05-15T15:12:28.538Z,12.90
2023-05-15T15:14:56.333Z,12.87
2023-05-15T15:17:24.116Z,12.89
2023-05-15T15:19:51.959Z,12.97
2023-05-15T15:22:19.801Z,12.94
2023-05-15T15:24:48.057Z,12.92
2023-05-15T15:27:18.458Z,12.86
2023-05-15T15:29:46.794Z,12.83
2023-05-15T15:32:14.709Z,12.80
2023-05-15T15:34:42.790Z,12.69
2023-05-15T15:37:11.457Z,12.64
2023-05-15T15:39:39.256Z,12.59
2023-05-15T15:42:07.479Z,12.61
2023-05-15T15:44:36.726Z,12.54
2023-05-15T15:47:04.855Z,12.53
2023-05-15T15:49:33.054Z,12.58
2023-05-15T15:52:01.245Z,12.54
2023-05-15T15:54:30.272Z,12.62
2023-05-15T15:56:58.175Z,12.57
2023-05-15T15:59:26.236Z,12.34
2023-05-15T16:01:55.712Z,12.47
2023-05-15T16:04:23.611Z,12.56
2023-05-15T16:06:51.488Z,12.67
2023-05-15T16:09:20.319Z,12.45
2023-05-15T16:11:48.090Z,12.26
2023-05-15T16:14:15.899Z,12.14
2023-05-15T16:16:43.728Z,12.11
2023-05-15T16:19:13.669Z,12.21
2023-05-15T16:21:41.499Z,12.13
2023-05-15T16:24:09.336Z,12.04
2023-05-15T16:26:39.560Z,12.06
2023-05-15T16:29:07.360Z,12.10
2023-05-15T16:31:35.306Z,12.04
2023-05-15T16:34:03.893Z,12.03
2023-05-15T16:36:33.220Z,11.87
2023-05-15T16:39:03.088Z,11.76
2023-05-15T16:41:31.126Z,11.74
2023-05-15T16:43:58.869Z,11.60
2023-05-15T16:46:26.674Z,11.52
2023-05-15T16:48:54.436Z,11.59
2023-05-15T16:51:22.642Z,11.51
2023-05-15T16:53:52.716Z,11.46
2023-05-15T16:56:20.980Z,11.44
2023-05-15T16:58:48.855Z,11.30
2023-05-15T17:01:16.721Z,11.22
2023-05-15T17:03:44.793Z,11.21
2023-05-15T17:06:12.643Z,11.16
2023-05-15T17:08:42.627Z,11.20
2023-05-15T17:11:13.356Z,11.11
2023-05-15T17:13:41.615Z,11.05
2023-05-15T17:16:09.768Z,11.06
2023-05-15T17:18:39.967Z,11.07
2023-05-15T17:21:08.002Z,11.03
2023-05-15T17:23:36.139Z,11.02
2023-05-15T17:26:04.363Z,11.04
2023-05-15T17:28:35.780Z,10.93
2023-05-15T17:31:10.434Z,10.98
2023-05-15T17:33:38.279Z,11.07
2023-05-15T17:36:06.339Z,10.93
2023-05-15T17:38:34.239Z,10.95
2023-05-15T17:41:02.134Z,10.89
2023-05-15T17:43:29.941Z,11.02
2023-05-15T17:46:00.422Z,10.94
2023-05-15T17:48:28.458Z,10.86
2023-05-15T17:50:56.302Z,10.74
2023-05-15T17:53:24.534Z,10.87
2023-05-15T17:55:52.494Z,10.93
2023-05-15T17:58:21.231Z,10.88
2023-05-15T18:00:49.048Z,10.84
2023-05-15T18:03:21.131Z,10.84
2023-05-15T18:05:49.178Z,10.95
2023-05-15T18:08:16.975Z,11.04
2023-05-15T18:10:45.053Z,11.00
2023-05-15T18:13:12.845Z,10.96
2023-05-15T18:15:40.742Z,11.03
2023-05-15T18:18:08.683Z,10.96
2023-05-15T18:20:37.918Z,10.94
2023-05-15T18:23:05.769Z,10.86
2023-05-15T18:25:36.745Z,10.87
2023-05-15T18:28:04.694Z,10.80
2023-05-15T18:30:32.489Z,10.86
2023-05-15T18:33:00.376Z,10.68
2023-05-15T18:35:28.417Z,10.72
2023-05-15T18:37:57.948Z,10.66
2023-05-15T18:40:26.492Z,10.51
2023-05-15T18:42:55.374Z,10.54
2023-05-15T18:45:24.035Z,10.51
2023-05-15T18:47:52.992Z,10.57
2023-05-15T18:50:21.036Z,10.51
2023-05-15T18:52:48.989Z,10.46
2023-05-15T18:55:18.234Z,10.43
2023-05-15T18:57:46.041Z,10.25
2023-05-15T19:00:18.923Z,10.24
2023-05-15T19:02:51.735Z,10.19
2023-05-15T19:05:19.953Z,10.19
2023-05-15T19:07:47.993Z,10.25
2023-05-15T19:10:16.017Z,10.19
2023-05-15T19:12:45.400Z,10.17
2023-05-15T19:15:14.001Z,10.20
2023-05-15T19:17:42.377Z,10.01
2023-05-15T19:20:11.129Z,10.01
2023-05-15T19:22:38.937Z,9.98
2023-05-15T19:25:07.874Z,9.99
2023-05-15T19:27:35.923Z,9.82
2023-05-15T19:30:07.021Z,9.85
2023-05-15T19:32:35.432Z,9.98
2023-05-15T19:35:03.574Z,9.81
2023-05-15T19:37:31.390Z,10.00
2023-05-15T19:39:59.295Z,9.91
2023-05-15T19:42:27.192Z,9.90
2023-05-15T19:44:55.026Z,9.90
2023-05-15T19:47:24.234Z,10.02
2023-05-15T19:49:52.062Z,9.93
2023-05-15T19:52:20.838Z,10.04
2023-05-15T19:54:48.668Z,10.13
2023-05-15T19:57:16.536Z,9.99
2023-05-15T19:59:44.411Z,10.03
2023-05-15T20:02:12.337Z,10.00
2023-05-15T20:04:41.611Z,10.05
2023-05-15T20:07:09.399Z,9.96
2023-05-15T20:09:39.395Z,10.20
2023-05-15T20:12:08.220Z,10.16
2023-05-15T20:14:36.448Z,10.12
2023-05-15T20:17:04.739Z,10.08
2023-05-15T20:19:32.611Z,10.13
2023-05-15T20:22:01.775Z,10.05
2023-05-15T20:24:30.336Z,10.13
2023-05-15T20:26:58.440Z,10.03
2023-05-15T20:29:26.539Z,10.02
2023-05-15T20:31:54.413Z,10.06
2023-05-15T20:34:23.365Z,9.83
2023-05-15T20:36:52.638Z,9.91
2023-05-15T20:39:21.849Z,9.88
2023-05-15T20:41:50.179Z,9.85
2023-05-15T20:44:18.137Z,9.72
2023-05-15T20:46:45.967Z,9.65
2023-05-15T20:49:13.762Z,9.61
2023-05-15T20:51:44.505Z,9.69
2023-05-15T20:54:12.345Z,9.73
2023-05-15T20:56:41.876Z,9.73
2023-05-15T20:59:09.737Z,9.80
2023-05-15T21:01:37.657Z,9.71
2023-05-15T21:04:05.639Z,9.71
2023-05-15T21:06:33.589Z,9.73
2023-05-15T21:09:01.377Z,9.45
2023-05-15T21:11:30.147Z,9.59
2023-05-15T21:13:59.293Z,9.60
2023-05-15T21:16:27.177Z,9.46
2023-05-15T21:18:54.957Z,9.54
2023-05-15T21:21:22.792Z,9.42
2023-05-15T21:23:50.621Z,9.53
2023-05-15T21:26:18.484Z,9.45
2023-05-15T21:28:46.299Z,9.38
2023-05-15T21:31:15.496Z,9.48
2023-05-15T21:33:43.393Z,9.44
2023-05-15T21:36:11.305Z,9.46
2023-05-15T21:38:39.130Z,9.51
2023-05-15T21:41:06.955Z,9.46
2023-05-15T21:43:34.756Z,9.44
2023-05-15T21:46:02.543Z,9.45
2023-05-15T21:48:31.742Z,9.43
2023-05-15T21:50:59.711Z,9.45
2023-05-15T21:53:27.809Z,9.38
2023-05-15T21:56:00.440Z,9.32
2023-05-15T21:58:28.501Z,9.45
2023-05-15T22:00:56.593Z,9.48
2023-05-15T22:03:24.810Z,9.43
2023-05-15T22:05:54.172Z,9.46
2023-05-15T22:08:22.260Z,9.40
2023-05-15T22:10:50.589Z,9.38
2023-05-15T22:13:21.357Z,9.43
2023-05-15T22:15:49.235Z,9.42
2023-05-15T22:18:17.187Z,9.37
2023-05-15T22:20:45.757Z,9.36
2023-05-15T22:23:14.868Z,9.34
2023-05-15T22:25:42.772Z,9.25
2023-05-15T22:28:12.345Z,9.25
2023-05-15T22:30:40.349Z,9.09
2023-05-15T22:33:08.198Z,9.19
2023-05-15T22:35:36.114Z,9.12
2023-05-15T22:38:05.712Z,9.07
2023-05-15T22:40:34.855Z,9.11
2023-05-15T22:43:02.685Z,9.10
2023-05-15T22:45:30.457Z,8.97
2023-05-15T22:47:58.395Z,9.02
2023-05-15T22:50:26.666Z,8.99
2023-05-15T22:52:54.856Z,9.01
2023-05-15T22:55:22.820Z,9.00
2023-05-15T22:57:52.005Z,8.96
2023-05-15T23:00:20.265Z,8.83
2023-05-15T23:02:48.219Z,8.90
2023-05-15T23:05:16.271Z,8.94
2023-05-15T23:07:44.028Z,8.93
2023-05-15T23:10:12.234Z,8.87
2023-05-15T23:12:40.600Z,8.82
2023-05-15T23:15:11.389Z,8.83
2023-05-15T23:17:39.490Z,8.76
2023-05-15T23:20:10.451Z,8.74
2023-05-15T23:22:38.663Z,8.77
2023-05-15T23:25:07.784Z,8.66
2023-05-15T23:27:35.526Z,8.75
2023-05-15T23:30:03.393Z,8.82
2023-05-15T23:32:32.580Z,8.74
2023-05-15T23:35:00.412Z,8.83
2023-05-15T23:37:28.171Z,8.74
2023-05-15T23:39:56.030Z,8.81
2023-05-15T23:42:24.456Z,8.74
2023-05-15T23:44:52.220Z,8.82
2023-05-15T23:47:19.936Z,8.81
2023-05-15T23:49:49.248Z,8.82
2023-05-15T23:52:16.994Z,8.63
2023-05-15T23:54:44.787Z,8.68
2023-05-15T23:57:12.554Z,8.66
2023-05-15T23:59:40.383Z,8.70
